sensor_id;sensor_type;location;lat;lon;timestamp;temperature;humidity
11744;DHT22;5929;51.906;7.674;2023-02-01T00:00:25;5.00;99.90
11744;DHT22;5929;51.906;7.674;2023-02-01T00:02:52;5.00;99.90
11744;DHT22;5929;51.906;7.674;2023-02-01T00:05:19;5.00;99.90
11744;DHT22;5929;51.906;7.674;2023-02-01T00:07:47;4.90;99.90
11744;DHT22;5929;51.906;7.674;2023-02-01T00:10:14;4.90;99.90
11744;DHT22;5929;51.906;7.674;2023-02-01T00:12:41;4.90;99.90
11744;DHT22;5929;51.906;7.674;2023-02-01T00:15:10;4.90;99.90
11744;DHT22;5929;51.906;7.674;2023-02-01T00:17:37;4.90;99.90
11744;DHT22;5929;51.906;7.674;2023-02-01T00:20:04;5.00;99.90
11744;DHT22;5929;51.906;7.674;2023-02-01T00:22:31;5.00;99.90
11744;DHT22;5929;51.906;7.674;2023-02-01T00:24:58;4.90;99.90
11744;DHT22;5929;51.906;7.674;2023-02-01T00:27:27;4.90;99.90
11744;DHT22;5929;51.906;7.674;2023-02-01T00:29:54;5.00;99.90
11744;DHT22;5929;51.906;7.674;2023-02-01T00:32:22;5.00;99.90
11744;DHT22;5929;51.906;7.674;2023-02-01T00:34:49;4.90;99.90
11744;DHT22;5929;51.906;7.674;2023-02-01T00:37:16;5.00;99.90
11744;DHT22;5929;51.906;7.674;2023-02-01T00:39:43;5.00;99.90
11744;DHT22;5929;51.906;7.674;2023-02-01T00:42:09;5.10;99.90
11744;DHT22;5929;51.906;7.674;2023-02-01T00:44:36;5.10;99.90
11744;DHT22;5929;51.906;7.674;2023-02-01T00:47:03;5.10;99.90
11744;DHT22;5929;51.906;7.674;2023-02-01T00:49:31;5.20;99.90
11744;DHT22;5929;51.906;7.674;2023-02-01T00:51:58;5.20;99.90
11744;DHT22;5929;51.906;7.674;2023-02-01T00:54:25;5.20;99.90
11744;DHT22;5929;51.906;7.674;2023-02-01T00:56:52;5.20;99.90
11744;DHT22;5929;51.906;7.674;2023-02-01T00:59:18;5.20;99.90
11744;DHT22;5929;51.906;7.674;2023-02-01T01:01:45;5.30;99.90
11744;DHT22;5929;51.906;7.674;2023-02-01T01:04:12;5.30;99.90
11744;DHT22;5929;51.906;7.674;2023-02-01T01:06:40;5.30;99.90
11744;DHT22;5929;51.906;7.674;2023-02-01T01:09:07;5.30;99.90
11744;DHT22;5929;51.906;7.674;2023-02-01T01:11:36;5.30;99.90
11744;DHT22;5929;51.906;7.674;2023-02-01T01:14:04;5.30;99.90
11744;DHT22;5929;51.906;7.674;2023-02-01T01:16:31;5.30;99.90
11744;DHT22;5929;51.906;7.674;2023-02-01T01:18:59;5.30;99.90
11744;DHT22;5929;51.906;7.674;2023-02-01T01:21:26;5.40;99.90
11744;DHT22;5929;51.906;7.674;2023-02-01T01:23:55;5.40;99.90
11744;DHT22;5929;51.906;7.674;2023-02-01T01:26:23;5.40;99.90
11744;DHT22;5929;51.906;7.674;2023-02-01T01:28:50;5.40;99.90
11744;DHT22;5929;51.906;7.674;2023-02-01T01:31:19;5.40;99.90
11744;DHT22;5929;51.906;7.674;2023-02-01T01:33:51;5.40;99.90
11744;DHT22;5929;51.906;7.674;2023-02-01T01:36:19;5.40;99.90
11744;DHT22;5929;51.906;7.674;2023-02-01T01:38:46;5.40;99.90
11744;DHT22;5929;51.906;7.674;2023-02-01T01:41:16;5.40;99.90
11744;DHT22;5929;51.906;7.674;2023-02-01T01:43:49;5.40;99.90
11744;DHT22;5929;51.906;7.674;2023-02-01T01:46:17;5.40;99.90
11744;DHT22;5929;51.906;7.674;2023-02-01T01:48:45;5.40;99.90
11744;DHT22;5929;51.906;7.674;2023-02-01T01:51:17;5.40;99.90
11744;DHT22;5929;51.906;7.674;2023-02-01T01:53:47;5.40;99.90
11744;DHT22;5929;51.906;7.674;2023-02-01T01:56:17;5.40;99.90
11744;DHT22;5929;51.906;7.674;2023-02-01T01:58:44;5.40;99.90
11744;DHT22;5929;51.906;7.674;2023-02-01T02:01:10;5.40;99.90
11744;DHT22;5929;51.906;7.674;2023-02-01T02:03:40;5.50;99.90
11744;DHT22;5929;51.906;7.674;2023-02-01T02:06:12;5.50;99.90
11744;DHT22;5929;51.906;7.674;2023-02-01T02:08:44;5.60;99.90
11744;DHT22;5929;51.906;7.674;2023-02-01T02:11:13;5.60;99.90
11744;DHT22;5929;51.906;7.674;2023-02-01T02:13:44;5.60;99.90
11744;DHT22;5929;51.906;7.674;2023-02-01T02:28:28;5.60;99.90
11744;DHT22;5929;51.906;7.674;2023-02-01T02:31:21;5.60;99.90
11744;DHT22;5929;51.906;7.674;2023-02-01T02:33:59;5.60;99.90
11744;DHT22;5929;51.906;7.674;2023-02-01T02:36:37;5.60;99.90
11744;DHT22;5929;51.906;7.674;2023-02-01T02:39:08;5.60;99.90
11744;DHT22;5929;51.906;7.674;2023-02-01T02:41:44;5.50;99.90
11744;DHT22;5929;51.906;7.674;2023-02-01T02:44:41;5.50;99.90
11744;DHT22;5929;51.906;7.674;2023-02-01T02:47:33;5.50;99.90
11744;DHT22;5929;51.906;7.674;2023-02-01T02:50:15;5.50;99.90
11744;DHT22;5929;51.906;7.674;2023-02-01T02:53:04;5.50;99.90
11744;DHT22;5929;51.906;7.674;2023-02-01T02:55:50;5.50;99.90
11744;DHT22;5929;51.906;7.674;2023-02-01T02:58:32;5.50;99.90
11744;DHT22;5929;51.906;7.674;2023-02-01T03:01:16;5.50;99.90
11744;DHT22;5929;51.906;7.674;2023-02-01T03:04:01;5.50;99.90
11744;DHT22;5929;51.906;7.674;2023-02-01T03:06:37;5.60;99.90
11744;DHT22;5929;51.906;7.674;2023-02-01T03:09:11;5.60;99.90
11744;DHT22;5929;51.906;7.674;2023-02-01T03:11:41;5.60;99.90
11744;DHT22;5929;51.906;7.674;2023-02-01T03:14:29;5.70;99.90
11744;DHT22;5929;51.906;7.674;2023-02-01T03:16:59;5.70;99.90
11744;DHT22;5929;51.906;7.674;2023-02-01T03:19:34;5.70;99.90
11744;DHT22;5929;51.906;7.674;2023-02-01T03:22:05;5.70;99.90
11744;DHT22;5929;51.906;7.674;2023-02-01T03:24:37;5.70;99.90
11744;DHT22;5929;51.906;7.674;2023-02-01T03:27:09;5.70;99.90
11744;DHT22;5929;51.906;7.674;2023-02-01T03:29:44;5.70;99.90
11744;DHT22;5929;51.906;7.674;2023-02-01T03:32:12;5.70;99.90
11744;DHT22;5929;51.906;7.674;2023-02-01T03:34:39;5.70;99.90
11744;DHT22;5929;51.906;7.674;2023-02-01T03:37:11;5.70;99.90
11744;DHT22;5929;51.906;7.674;2023-02-01T03:39:42;5.70;99.90
11744;DHT22;5929;51.906;7.674;2023-02-01T03:42:14;5.70;99.90
11744;DHT22;5929;51.906;7.674;2023-02-01T03:44:48;5.70;99.90
11744;DHT22;5929;51.906;7.674;2023-02-01T03:47:17;5.70;99.90
11744;DHT22;5929;51.906;7.674;2023-02-01T03:49:49;5.70;99.90
11744;DHT22;5929;51.906;7.674;2023-02-01T03:52:22;5.70;99.90
11744;DHT22;5929;51.906;7.674;2023-02-01T03:54:52;5.70;99.90
11744;DHT22;5929;51.906;7.674;2023-02-01T03:57:23;5.70;99.90
11744;DHT22;5929;51.906;7.674;2023-02-01T04:00:04;5.70;99.90
11744;DHT22;5929;51.906;7.674;2023-02-01T04:02:33;5.70;99.90
11744;DHT22;5929;51.906;7.674;2023-02-01T04:05:03;5.70;99.90
11744;DHT22;5929;51.906;7.674;2023-02-01T04:07:31;5.70;99.90
11744;DHT22;5929;51.906;7.674;2023-02-01T04:09:58;5.70;99.90
11744;DHT22;5929;51.906;7.674;2023-02-01T04:12:25;5.70;99.90
11744;DHT22;5929;51.906;7.674;2023-02-01T04:14:52;5.70;99.90
11744;DHT22;5929;51.906;7.674;2023-02-01T04:17:19;5.70;99.90
11744;DHT22;5929;51.906;7.674;2023-02-01T04:19:45;5.70;99.90
11744;DHT22;5929;51.906;7.674;2023-02-01T04:22:12;5.70;99.90
11744;DHT22;5929;51.906;7.674;2023-02-01T04:24:40;5.70;99.90
11744;DHT22;5929;51.906;7.674;2023-02-01T04:27:07;5.70;99.90
11744;DHT22;5929;51.906;7.674;2023-02-01T04:29:34;5.70;99.90
11744;DHT22;5929;51.906;7.674;2023-02-01T04:32:01;5.70;99.90
11744;DHT22;5929;51.906;7.674;2023-02-01T04:34:30;5.70;99.90
11744;DHT22;5929;51.906;7.674;2023-02-01T04:36:57;5.70;99.90
11744;DHT22;5929;51.906;7.674;2023-02-01T04:39:26;5.70;99.90
11744;DHT22;5929;51.906;7.674;2023-02-01T04:41:54;5.70;99.90
11744;DHT22;5929;51.906;7.674;2023-02-01T04:44:21;5.70;99.90
11744;DHT22;5929;51.906;7.674;2023-02-01T04:46:48;5.60;99.90
11744;DHT22;5929;51.906;7.674;2023-02-01T04:49:15;5.60;99.90
11744;DHT22;5929;51.906;7.674;2023-02-01T04:51:42;5.60;99.90
11744;DHT22;5929;51.906;7.674;2023-02-01T04:54:09;5.60;99.90
11744;DHT22;5929;51.906;7.674;2023-02-01T04:56:40;5.60;99.90
11744;DHT22;5929;51.906;7.674;2023-02-01T04:59:10;5.60;99.90
11744;DHT22;5929;51.906;7.674;2023-02-01T05:01:37;5.60;99.90
11744;DHT22;5929;51.906;7.674;2023-02-01T05:04:04;5.60;99.90
11744;DHT22;5929;51.906;7.674;2023-02-01T05:06:31;5.60;99.90
11744;DHT22;5929;51.906;7.674;2023-02-01T05:08:58;5.60;99.90
11744;DHT22;5929;51.906;7.674;2023-02-01T05:11:24;5.60;99.90
11744;DHT22;5929;51.906;7.674;2023-02-01T05:14:10;5.60;99.90
11744;DHT22;5929;51.906;7.674;2023-02-01T05:16:37;5.60;99.90
11744;DHT22;5929;51.906;7.674;2023-02-01T05:19:04;5.60;99.90
11744;DHT22;5929;51.906;7.674;2023-02-01T05:21:30;5.60;99.90
11744;DHT22;5929;51.906;7.674;2023-02-01T05:23:57;5.60;99.90
11744;DHT22;5929;51.906;7.674;2023-02-01T05:26:38;5.60;99.90
11744;DHT22;5929;51.906;7.674;2023-02-01T05:29:06;5.60;99.90
11744;DHT22;5929;51.906;7.674;2023-02-01T05:31:34;5.60;99.90
11744;DHT22;5929;51.906;7.674;2023-02-01T05:34:01;5.60;99.90
11744;DHT22;5929;51.906;7.674;2023-02-01T05:36:28;5.60;99.90
11744;DHT22;5929;51.906;7.674;2023-02-01T05:38:55;5.60;99.90
11744;DHT22;5929;51.906;7.674;2023-02-01T05:41:22;5.60;99.90
11744;DHT22;5929;51.906;7.674;2023-02-01T05:43:49;5.60;99.90
11744;DHT22;5929;51.906;7.674;2023-02-01T05:46:15;5.60;99.90
11744;DHT22;5929;51.906;7.674;2023-02-01T05:48:44;5.60;99.90
11744;DHT22;5929;51.906;7.674;2023-02-01T05:51:11;5.60;99.90
11744;DHT22;5929;51.906;7.674;2023-02-01T05:53:38;5.60;99.90
11744;DHT22;5929;51.906;7.674;2023-02-01T05:56:06;5.60;99.90
11744;DHT22;5929;51.906;7.674;2023-02-01T05:58:33;5.60;99.90
11744;DHT22;5929;51.906;7.674;2023-02-01T06:01:00;5.60;99.90
11744;DHT22;5929;51.906;7.674;2023-02-01T06:03:28;5.60;99.90
11744;DHT22;5929;51.906;7.674;2023-02-01T06:05:56;5.60;99.90
11744;DHT22;5929;51.906;7.674;2023-02-01T06:08:23;5.60;99.90
11744;DHT22;5929;51.906;7.674;2023-02-01T06:10:51;5.60;99.90
11744;DHT22;5929;51.906;7.674;2023-02-01T06:13:18;5.60;99.90
11744;DHT22;5929;51.906;7.674;2023-02-01T06:15:45;5.60;99.90
11744;DHT22;5929;51.906;7.674;2023-02-01T06:18:12;5.50;99.90
11744;DHT22;5929;51.906;7.674;2023-02-01T06:20:41;5.50;99.90
11744;DHT22;5929;51.906;7.674;2023-02-01T06:23:09;5.50;99.90
11744;DHT22;5929;51.906;7.674;2023-02-01T06:25:36;5.50;99.90
11744;DHT22;5929;51.906;7.674;2023-02-01T06:28:03;5.50;99.90
11744;DHT22;5929;51.906;7.674;2023-02-01T06:30:31;5.50;99.90
11744;DHT22;5929;51.906;7.674;2023-02-01T06:32:58;5.50;99.90
11744;DHT22;5929;51.906;7.674;2023-02-01T06:35:25;5.60;99.90
11744;DHT22;5929;51.906;7.674;2023-02-01T06:37:54;5.60;99.90
11744;DHT22;5929;51.906;7.674;2023-02-01T06:40:24;5.60;99.90
11744;DHT22;5929;51.906;7.674;2023-02-01T06:42:51;5.60;99.90
11744;DHT22;5929;51.906;7.674;2023-02-01T06:45:18;5.60;99.90
11744;DHT22;5929;51.906;7.674;2023-02-01T06:47:45;5.50;99.90
11744;DHT22;5929;51.906;7.674;2023-02-01T06:50:15;5.50;99.90
11744;DHT22;5929;51.906;7.674;2023-02-01T06:52:42;5.60;99.90
11744;DHT22;5929;51.906;7.674;2023-02-01T06:55:09;5.50;99.90
11744;DHT22;5929;51.906;7.674;2023-02-01T06:57:37;5.60;99.90
11744;DHT22;5929;51.906;7.674;2023-02-01T07:00:05;5.60;99.90
11744;DHT22;5929;51.906;7.674;2023-02-01T07:02:32;5.60;99.90
11744;DHT22;5929;51.906;7.674;2023-02-01T07:04:59;5.60;99.90
11744;DHT22;5929;51.906;7.674;2023-02-01T07:07:28;5.60;99.90
11744;DHT22;5929;51.906;7.674;2023-02-01T07:09:57;5.60;99.90
11744;DHT22;5929;51.906;7.674;2023-02-01T07:12:24;5.60;99.90
11744;DHT22;5929;51.906;7.674;2023-02-01T07:14:54;5.70;99.90
11744;DHT22;5929;51.906;7.674;2023-02-01T07:17:21;5.60;99.90
11744;DHT22;5929;51.906;7.674;2023-02-01T07:19:50;5.70;99.90
11744;DHT22;5929;51.906;7.674;2023-02-01T07:22:20;5.70;99.90
11744;DHT22;5929;51.906;7.674;2023-02-01T07:24:47;5.70;99.90
11744;DHT22;5929;51.906;7.674;2023-02-01T07:27:14;5.70;99.90
11744;DHT22;5929;51.906;7.674;2023-02-01T07:29:41;5.70;99.90
11744;DHT22;5929;51.906;7.674;2023-02-01T07:32:09;5.70;99.90
11744;DHT22;5929;51.906;7.674;2023-02-01T07:34:36;5.70;99.90
11744;DHT22;5929;51.906;7.674;2023-02-01T07:37:05;5.80;99.90
11744;DHT22;5929;51.906;7.674;2023-02-01T07:39:32;5.80;99.90
11744;DHT22;5929;51.906;7.674;2023-02-01T07:41:58;5.90;99.90
11744;DHT22;5929;51.906;7.674;2023-02-01T07:44:25;5.90;99.90
11744;DHT22;5929;51.906;7.674;2023-02-01T07:46:52;5.90;99.90
11744;DHT22;5929;51.906;7.674;2023-02-01T07:49:20;5.90;99.90
11744;DHT22;5929;51.906;7.674;2023-02-01T07:51:47;5.90;99.90
11744;DHT22;5929;51.906;7.674;2023-02-01T07:54:14;5.90;99.90
11744;DHT22;5929;51.906;7.674;2023-02-01T07:56:41;5.90;99.90
11744;DHT22;5929;51.906;7.674;2023-02-01T07:59:07;6.00;99.90
11744;DHT22;5929;51.906;7.674;2023-02-01T08:01:34;6.00;99.90
11744;DHT22;5929;51.906;7.674;2023-02-01T08:04:02;6.00;99.90
11744;DHT22;5929;51.906;7.674;2023-02-01T08:06:32;6.00;99.90
11744;DHT22;5929;51.906;7.674;2023-02-01T08:09:00;6.10;99.90
11744;DHT22;5929;51.906;7.674;2023-02-01T08:11:27;6.10;99.90
11744;DHT22;5929;51.906;7.674;2023-02-01T08:13:54;6.10;99.90
11744;DHT22;5929;51.906;7.674;2023-02-01T08:16:22;6.10;99.90
11744;DHT22;5929;51.906;7.674;2023-02-01T08:18:49;6.10;99.90
11744;DHT22;5929;51.906;7.674;2023-02-01T08:21:17;6.10;99.90
11744;DHT22;5929;51.906;7.674;2023-02-01T08:23:46;6.10;99.90
11744;DHT22;5929;51.906;7.674;2023-02-01T08:26:15;6.20;99.90
11744;DHT22;5929;51.906;7.674;2023-02-01T08:28:43;6.20;99.90
11744;DHT22;5929;51.906;7.674;2023-02-01T08:31:12;6.20;99.90
11744;DHT22;5929;51.906;7.674;2023-02-01T08:33:40;6.20;99.90
11744;DHT22;5929;51.906;7.674;2023-02-01T08:36:10;6.20;99.90
11744;DHT22;5929;51.906;7.674;2023-02-01T08:38:38;6.20;99.90
11744;DHT22;5929;51.906;7.674;2023-02-01T08:41:11;6.20;99.90
11744;DHT22;5929;51.906;7.674;2023-02-01T08:43:38;6.20;99.90
11744;DHT22;5929;51.906;7.674;2023-02-01T08:46:06;6.30;99.90
11744;DHT22;5929;51.906;7.674;2023-02-01T08:48:33;6.30;99.90
11744;DHT22;5929;51.906;7.674;2023-02-01T08:51:01;6.30;99.90
11744;DHT22;5929;51.906;7.674;2023-02-01T08:53:29;6.40;99.90
11744;DHT22;5929;51.906;7.674;2023-02-01T08:55:55;6.40;99.90
11744;DHT22;5929;51.906;7.674;2023-02-01T08:58:24;6.40;99.90
11744;DHT22;5929;51.906;7.674;2023-02-01T09:00:53;6.40;99.90
11744;DHT22;5929;51.906;7.674;2023-02-01T09:03:22;6.40;99.90
11744;DHT22;5929;51.906;7.674;2023-02-01T09:05:49;6.40;99.90
11744;DHT22;5929;51.906;7.674;2023-02-01T09:08:16;6.40;99.90
11744;DHT22;5929;51.906;7.674;2023-02-01T09:10:44;6.50;99.90
11744;DHT22;5929;51.906;7.674;2023-02-01T09:13:11;6.50;99.90
11744;DHT22;5929;51.906;7.674;2023-02-01T09:15:41;6.50;99.90
11744;DHT22;5929;51.906;7.674;2023-02-01T09:18:08;6.60;99.90
11744;DHT22;5929;51.906;7.674;2023-02-01T09:20:36;6.60;99.90
11744;DHT22;5929;51.906;7.674;2023-02-01T09:23:03;6.60;99.90
11744;DHT22;5929;51.906;7.674;2023-02-01T09:25:32;6.60;99.90
11744;DHT22;5929;51.906;7.674;2023-02-01T09:27:59;6.60;99.90
11744;DHT22;5929;51.906;7.674;2023-02-01T09:30:28;6.60;99.90
11744;DHT22;5929;51.906;7.674;2023-02-01T09:32:56;6.50;99.90
11744;DHT22;5929;51.906;7.674;2023-02-01T09:35:23;6.60;99.90
11744;DHT22;5929;51.906;7.674;2023-02-01T09:37:49;6.60;99.90
11744;DHT22;5929;51.906;7.674;2023-02-01T09:40:17;6.60;99.90
11744;DHT22;5929;51.906;7.674;2023-02-01T09:43:00;6.70;99.90
11744;DHT22;5929;51.906;7.674;2023-02-01T09:45:33;6.70;99.90
11744;DHT22;5929;51.906;7.674;2023-02-01T09:48:10;6.70;99.90
11744;DHT22;5929;51.906;7.674;2023-02-01T09:50:39;6.80;99.90
11744;DHT22;5929;51.906;7.674;2023-02-01T09:53:14;6.80;99.90
11744;DHT22;5929;51.906;7.674;2023-02-01T09:55:44;6.80;99.90
11744;DHT22;5929;51.906;7.674;2023-02-01T09:58:15;7.00;99.90
11744;DHT22;5929;51.906;7.674;2023-02-01T10:00:51;7.10;99.90
11744;DHT22;5929;51.906;7.674;2023-02-01T10:03:20;7.10;99.90
11744;DHT22;5929;51.906;7.674;2023-02-01T10:06:04;7.20;99.90
11744;DHT22;5929;51.906;7.674;2023-02-01T10:08:41;7.20;99.90
11744;DHT22;5929;51.906;7.674;2023-02-01T10:11:23;7.20;99.90
11744;DHT22;5929;51.906;7.674;2023-02-01T10:14:00;7.10;99.90
11744;DHT22;5929;51.906;7.674;2023-02-01T10:16:39;7.10;99.90
11744;DHT22;5929;51.906;7.674;2023-02-01T10:19:33;7.10;99.90
11744;DHT22;5929;51.906;7.674;2023-02-01T10:22:08;7.10;99.90
11744;DHT22;5929;51.906;7.674;2023-02-01T10:24:41;7.20;99.90
11744;DHT22;5929;51.906;7.674;2023-02-01T10:27:13;7.20;99.90
11744;DHT22;5929;51.906;7.674;2023-02-01T10:29:43;7.20;99.90
11744;DHT22;5929;51.906;7.674;2023-02-01T10:32:13;7.20;99.90
11744;DHT22;5929;51.906;7.674;2023-02-01T10:34:44;7.20;99.90
11744;DHT22;5929;51.906;7.674;2023-02-01T10:37:23;7.30;99.90
11744;DHT22;5929;51.906;7.674;2023-02-01T10:39:53;7.20;99.90
11744;DHT22;5929;51.906;7.674;2023-02-01T10:42:25;7.20;99.90
11744;DHT22;5929;51.906;7.674;2023-02-01T10:44:54;7.30;99.90
11744;DHT22;5929;51.906;7.674;2023-02-01T10:47:22;7.40;99.90
11744;DHT22;5929;51.906;7.674;2023-02-01T10:49:55;7.40;99.90
11744;DHT22;5929;51.906;7.674;2023-02-01T10:52:33;7.40;99.90
11744;DHT22;5929;51.906;7.674;2023-02-01T10:55:25;7.50;99.90
11744;DHT22;5929;51.906;7.674;2023-02-01T10:57:56;7.50;99.90
11744;DHT22;5929;51.906;7.674;2023-02-01T11:00:24;7.50;99.90
11744;DHT22;5929;51.906;7.674;2023-02-01T11:02:51;7.50;99.90
11744;DHT22;5929;51.906;7.674;2023-02-01T11:05:20;7.50;99.90
11744;DHT22;5929;51.906;7.674;2023-02-01T11:07:49;7.40;99.90
11744;DHT22;5929;51.906;7.674;2023-02-01T11:10:37;7.40;99.90
11744;DHT22;5929;51.906;7.674;2023-02-01T11:13:04;7.30;99.90
11744;DHT22;5929;51.906;7.674;2023-02-01T11:15:31;7.30;99.90
11744;DHT22;5929;51.906;7.674;2023-02-01T11:18:14;7.20;99.90
11744;DHT22;5929;51.906;7.674;2023-02-01T11:20:42;7.20;99.90
11744;DHT22;5929;51.906;7.674;2023-02-01T11:23:15;7.20;99.90
11744;DHT22;5929;51.906;7.674;2023-02-01T11:25:48;7.20;99.90
11744;DHT22;5929;51.906;7.674;2023-02-01T11:28:16;7.10;99.90
11744;DHT22;5929;51.906;7.674;2023-02-01T11:30:45;7.00;99.90
11744;DHT22;5929;51.906;7.674;2023-02-01T11:33:16;6.90;99.90
11744;DHT22;5929;51.906;7.674;2023-02-01T11:35:47;6.80;99.90
11744;DHT22;5929;51.906;7.674;2023-02-01T11:38:20;6.70;99.90
11744;DHT22;5929;51.906;7.674;2023-02-01T11:40:48;6.60;99.90
11744;DHT22;5929;51.906;7.674;2023-02-01T11:43:19;6.60;99.90
11744;DHT22;5929;51.906;7.674;2023-02-01T11:45:57;6.50;99.90
11744;DHT22;5929;51.906;7.674;2023-02-01T11:48:25;6.40;99.90
11744;DHT22;5929;51.906;7.674;2023-02-01T11:51:15;6.30;99.90
11744;DHT22;5929;51.906;7.674;2023-02-01T11:54:02;6.20;99.90
11744;DHT22;5929;51.906;7.674;2023-02-01T11:56:36;6.10;99.90
11744;DHT22;5929;51.906;7.674;2023-02-01T11:59:16;6.00;99.90
11744;DHT22;5929;51.906;7.674;2023-02-01T12:01:57;5.80;99.90
11744;DHT22;5929;51.906;7.674;2023-02-01T12:04:56;5.70;99.90
11744;DHT22;5929;51.906;7.674;2023-02-01T12:07:31;5.60;99.90
11744;DHT22;5929;51.906;7.674;2023-02-01T12:10:11;5.50;99.90
11744;DHT22;5929;51.906;7.674;2023-02-01T12:12:46;5.50;99.90
11744;DHT22;5929;51.906;7.674;2023-02-01T12:15:27;5.50;99.90
11744;DHT22;5929;51.906;7.674;2023-02-01T12:18:27;5.50;99.90
11744;DHT22;5929;51.906;7.674;2023-02-01T12:21:06;5.40;99.90
11744;DHT22;5929;51.906;7.674;2023-02-01T12:23:57;5.50;99.90
11744;DHT22;5929;51.906;7.674;2023-02-01T12:26:56;5.40;99.90
11744;DHT22;5929;51.906;7.674;2023-02-01T12:29:42;5.50;99.90
11744;DHT22;5929;51.906;7.674;2023-02-01T12:32:25;5.40;99.90
11744;DHT22;5929;51.906;7.674;2023-02-01T12:35:06;5.40;99.90
11744;DHT22;5929;51.906;7.674;2023-02-01T12:37:49;5.40;99.90
11744;DHT22;5929;51.906;7.674;2023-02-01T12:40:41;5.40;99.90
11744;DHT22;5929;51.906;7.674;2023-02-01T12:43:12;5.50;99.90
11744;DHT22;5929;51.906;7.674;2023-02-01T12:45:45;5.50;99.90
11744;DHT22;5929;51.906;7.674;2023-02-01T12:48:25;5.50;99.90
11744;DHT22;5929;51.906;7.674;2023-02-01T12:50:55;5.50;99.90
11744;DHT22;5929;51.906;7.674;2023-02-01T12:53:42;5.50;99.90
11744;DHT22;5929;51.906;7.674;2023-02-01T12:56:16;5.50;99.90
11744;DHT22;5929;51.906;7.674;2023-02-01T12:58:48;5.60;99.90
11744;DHT22;5929;51.906;7.674;2023-02-01T13:01:18;5.60;99.90
11744;DHT22;5929;51.906;7.674;2023-02-01T13:03:54;5.50;99.90
11744;DHT22;5929;51.906;7.674;2023-02-01T13:06:25;5.60;99.90
11744;DHT22;5929;51.906;7.674;2023-02-01T13:08:57;5.60;99.90
11744;DHT22;5929;51.906;7.674;2023-02-01T13:11:30;5.60;99.90
11744;DHT22;5929;51.906;7.674;2023-02-01T13:14:02;5.60;99.90
11744;DHT22;5929;51.906;7.674;2023-02-01T13:16:32;5.60;99.90
11744;DHT22;5929;51.906;7.674;2023-02-01T13:19:10;5.60;99.90
11744;DHT22;5929;51.906;7.674;2023-02-01T13:21:46;5.60;99.90
11744;DHT22;5929;51.906;7.674;2023-02-01T13:24:29;5.70;99.90
11744;DHT22;5929;51.906;7.674;2023-02-01T13:26:59;5.70;99.90
11744;DHT22;5929;51.906;7.674;2023-02-01T13:29:27;5.70;99.90
11744;DHT22;5929;51.906;7.674;2023-02-01T13:32:12;5.70;99.90
11744;DHT22;5929;51.906;7.674;2023-02-01T13:35:14;5.80;99.90
11744;DHT22;5929;51.906;7.674;2023-02-01T13:38:06;5.80;99.90
11744;DHT22;5929;51.906;7.674;2023-02-01T13:40:39;5.90;99.90
11744;DHT22;5929;51.906;7.674;2023-02-01T13:43:13;5.90;99.90
11744;DHT22;5929;51.906;7.674;2023-02-01T13:45:46;6.00;99.90
11744;DHT22;5929;51.906;7.674;2023-02-01T13:48:22;6.00;99.90
11744;DHT22;5929;51.906;7.674;2023-02-01T13:50:55;6.10;99.90
11744;DHT22;5929;51.906;7.674;2023-02-01T13:53:27;6.20;99.90
11744;DHT22;5929;51.906;7.674;2023-02-01T13:55:58;6.20;99.90
11744;DHT22;5929;51.906;7.674;2023-02-01T13:58:37;6.30;99.90
11744;DHT22;5929;51.906;7.674;2023-02-01T14:01:33;6.40;99.90
11744;DHT22;5929;51.906;7.674;2023-02-01T14:04:02;6.50;99.90
11744;DHT22;5929;51.906;7.674;2023-02-01T14:06:44;6.60;99.90
11744;DHT22;5929;51.906;7.674;2023-02-01T14:09:18;6.70;99.90
11744;DHT22;5929;51.906;7.674;2023-02-01T14:11:49;6.80;99.90
11744;DHT22;5929;51.906;7.674;2023-02-01T14:14:49;7.00;99.90
11744;DHT22;5929;51.906;7.674;2023-02-01T14:17:34;7.00;99.90
11744;DHT22;5929;51.906;7.674;2023-02-01T14:23:16;7.20;99.90
11744;DHT22;5929;51.906;7.674;2023-02-01T14:25:45;7.20;99.90
11744;DHT22;5929;51.906;7.674;2023-02-01T14:28:22;7.20;99.90
11744;DHT22;5929;51.906;7.674;2023-02-01T14:30:53;7.00;99.90
11744;DHT22;5929;51.906;7.674;2023-02-01T14:33:23;7.00;99.90
11744;DHT22;5929;51.906;7.674;2023-02-01T14:36:07;6.90;99.90
11744;DHT22;5929;51.906;7.674;2023-02-01T14:38:37;6.90;99.90
11744;DHT22;5929;51.906;7.674;2023-02-01T14:41:22;6.90;99.90
11744;DHT22;5929;51.906;7.674;2023-02-01T14:43:51;6.90;99.90
11744;DHT22;5929;51.906;7.674;2023-02-01T14:46:19;7.00;99.90
11744;DHT22;5929;51.906;7.674;2023-02-01T14:49:06;7.00;99.90
11744;DHT22;5929;51.906;7.674;2023-02-01T14:51:33;7.00;99.90
11744;DHT22;5929;51.906;7.674;2023-02-01T14:54:01;7.00;99.90
11744;DHT22;5929;51.906;7.674;2023-02-01T14:56:28;6.90;99.90
11744;DHT22;5929;51.906;7.674;2023-02-01T14:58:57;6.90;99.90
11744;DHT22;5929;51.906;7.674;2023-02-01T15:01:27;6.80;99.90
11744;DHT22;5929;51.906;7.674;2023-02-01T15:03:58;6.60;99.90
11744;DHT22;5929;51.906;7.674;2023-02-01T15:06:33;6.60;99.90
11744;DHT22;5929;51.906;7.674;2023-02-01T15:09:04;6.50;99.90
11744;DHT22;5929;51.906;7.674;2023-02-01T15:11:54;6.50;99.90
11744;DHT22;5929;51.906;7.674;2023-02-01T15:14:21;6.60;99.90
11744;DHT22;5929;51.906;7.674;2023-02-01T15:16:52;6.60;99.90
11744;DHT22;5929;51.906;7.674;2023-02-01T15:19:23;6.70;99.90
11744;DHT22;5929;51.906;7.674;2023-02-01T15:21:52;6.70;99.90
11744;DHT22;5929;51.906;7.674;2023-02-01T15:24:23;6.70;99.90
11744;DHT22;5929;51.906;7.674;2023-02-01T15:26:53;6.80;99.90
11744;DHT22;5929;51.906;7.674;2023-02-01T15:29:22;6.80;99.90
11744;DHT22;5929;51.906;7.674;2023-02-01T15:31:53;6.90;99.90
11744;DHT22;5929;51.906;7.674;2023-02-01T15:34:20;6.90;99.90
11744;DHT22;5929;51.906;7.674;2023-02-01T15:36:47;7.00;99.90
11744;DHT22;5929;51.906;7.674;2023-02-01T15:39:20;7.00;99.90
11744;DHT22;5929;51.906;7.674;2023-02-01T15:41:51;7.00;99.90
11744;DHT22;5929;51.906;7.674;2023-02-01T15:44:26;7.00;99.90
11744;DHT22;5929;51.906;7.674;2023-02-01T15:46:56;7.00;99.90
11744;DHT22;5929;51.906;7.674;2023-02-01T15:49:27;7.00;99.90
11744;DHT22;5929;51.906;7.674;2023-02-01T15:51:57;7.00;99.90
11744;DHT22;5929;51.906;7.674;2023-02-01T15:54:27;7.00;99.90
11744;DHT22;5929;51.906;7.674;2023-02-01T15:56:58;7.00;99.90
11744;DHT22;5929;51.906;7.674;2023-02-01T15:59:30;6.90;99.90
11744;DHT22;5929;51.906;7.674;2023-02-01T16:02:02;7.00;99.90
11744;DHT22;5929;51.906;7.674;2023-02-01T16:04:30;6.90;99.90
11744;DHT22;5929;51.906;7.674;2023-02-01T16:06:59;6.90;99.90
11744;DHT22;5929;51.906;7.674;2023-02-01T16:09:37;6.90;99.90
11744;DHT22;5929;51.906;7.674;2023-02-01T16:12:29;6.80;99.90
11744;DHT22;5929;51.906;7.674;2023-02-01T16:14:57;6.90;99.90
11744;DHT22;5929;51.906;7.674;2023-02-01T16:17:25;6.90;99.90
11744;DHT22;5929;51.906;7.674;2023-02-01T16:19:52;6.90;99.90
11744;DHT22;5929;51.906;7.674;2023-02-01T16:22:19;6.90;99.90
11744;DHT22;5929;51.906;7.674;2023-02-01T16:24:46;7.00;99.90
11744;DHT22;5929;51.906;7.674;2023-02-01T16:27:12;6.90;99.90
11744;DHT22;5929;51.906;7.674;2023-02-01T16:29:39;7.00;99.90
11744;DHT22;5929;51.906;7.674;2023-02-01T16:32:08;6.90;99.90
11744;DHT22;5929;51.906;7.674;2023-02-01T16:34:39;7.00;99.90
11744;DHT22;5929;51.906;7.674;2023-02-01T16:37:06;7.00;99.90
11744;DHT22;5929;51.906;7.674;2023-02-01T16:39:36;7.00;99.90
11744;DHT22;5929;51.906;7.674;2023-02-01T16:42:09;7.00;99.90
11744;DHT22;5929;51.906;7.674;2023-02-01T16:44:36;7.00;99.90